Time;durP1;ratioP1;P1;durP2;ratioP2;P2;SDS_P1;SDS_P2;PMS_P1;PMS_P2;Temp;Humidity;BMP_temperature;BMP_pressure;BME280_temperature;BME280_humidity;BME280_pressure;Samples;Min_cycle;Max_cycle;Signal;HPM_P1;HPM_P2
2022/01/14 00:02:23;;;;;;;30.47;12.50;;;4.00;99.90;;;;;;5034941;28;20458;-66
2022/01/14 00:04:52;;;;;;;31.23;12.00;;;4.00;99.90;;;;;;5034919;28;20454;-66
2022/01/14 00:07:19;;;;;;;23.07;12.30;;;4.00;99.90;;;;;;5034944;28;20452;-66
2022/01/14 00:09:47;;;;;;;25.23;12.27;;;4.00;99.90;;;;;;5034727;28;20801;-66
2022/01/14 00:12:18;;;;;;;20.30;11.73;;;4.00;99.90;;;;;;5035371;28;20457;-66
2022/01/14 00:14:59;;;;;;;19.27;12.13;;;4.00;99.90;;;;;;5035651;28;20502;-66
2022/01/14 00:17:26;;;;;;;18.47;11.40;;;4.00;99.90;;;;;;5036446;28;20462;-66
2022/01/14 00:19:54;;;;;;;15.57;10.47;;;4.00;99.90;;;;;;5036008;28;20457;-66
2022/01/14 00:22:23;;;;;;;19.53;11.30;;;4.00;99.90;;;;;;5036390;28;20450;-66
2022/01/14 00:33:08;;;;;;;15.23;12.13;;;3.90;99.90;;;;;;5034877;28;20446;-66
2022/01/14 00:35:40;;;;;;;18.00;12.73;;;3.80;99.90;;;;;;5035436;28;20500;-66
2022/01/14 00:38:08;;;;;;;14.70;11.90;;;3.60;99.90;;;;;;5034638;28;20489;-66
2022/01/14 00:40:35;;;;;;;16.33;10.73;;;3.50;99.90;;;;;;5034571;28;20450;-66
2022/01/14 00:43:02;;;;;;;16.20;11.07;;;3.40;99.90;;;;;;5034252;28;20940;-66
2022/01/14 00:45:29;;;;;;;19.67;11.50;;;3.40;99.90;;;;;;5034420;28;20463;-66
2022/01/14 00:47:56;;;;;;;18.30;12.30;;;3.30;99.90;;;;;;5034085;28;20442;-66
2022/01/14 00:50:23;;;;;;;14.50;11.40;;;3.30;99.90;;;;;;5034302;28;20478;-66
2022/01/14 00:52:51;;;;;;;14.10;12.60;;;3.20;99.90;;;;;;5034355;28;20458;-66
2022/01/14 00:55:26;;;;;;;18.10;12.80;;;3.10;99.90;;;;;;5033977;28;21004;-66
2022/01/14 01:00:37;;;;;;;16.60;13.23;;;3.20;99.90;;;;;;5034325;28;20444;-66
2022/01/14 01:03:04;;;;;;;14.57;11.73;;;3.30;99.90;;;;;;5033810;28;20825;-66
2022/01/14 01:05:31;;;;;;;16.60;12.57;;;3.40;99.90;;;;;;5034103;28;20995;-66
2022/01/14 01:08:04;;;;;;;18.80;13.20;;;3.50;99.90;;;;;;5034343;28;20442;-66
2022/01/14 01:10:33;;;;;;;15.60;11.30;;;3.60;99.90;;;;;;5034005;28;20932;-66
2022/01/14 01:13:07;;;;;;;16.30;12.43;;;3.60;99.90;;;;;;5033666;28;20442;-66
2022/01/14 01:15:34;;;;;;;17.23;12.83;;;3.70;99.90;;;;;;5034292;28;20437;-66
2022/01/14 01:18:00;;;;;;;15.33;10.93;;;3.80;99.90;;;;;;5033810;28;20431;-66
2022/01/14 01:20:27;;;;;;;14.40;11.93;;;3.80;99.90;;;;;;5033913;28;20438;-66
2022/01/14 01:22:54;;;;;;;13.20;11.50;;;3.90;99.90;;;;;;5034092;28;20452;-66
2022/01/14 01:25:26;;;;;;;15.00;10.83;;;3.90;99.90;;;;;;5033600;28;20474;-66
2022/01/14 01:27:54;;;;;;;13.77;10.83;;;4.00;99.90;;;;;;5033827;28;20910;-66
2022/01/14 01:30:49;;;;;;;13.83;11.30;;;4.00;99.90;;;;;;5033995;28;20454;-66
2022/01/14 01:33:15;;;;;;;15.83;11.97;;;4.00;99.90;;;;;;5033296;28;20526;-66
2022/01/14 01:35:42;;;;;;;21.17;11.00;;;4.10;99.90;;;;;;5033721;28;20466;-66
2022/01/14 01:38:15;;;;;;;15.83;10.97;;;4.10;99.90;;;;;;5033567;28;20453;-66
2022/01/14 01:40:44;;;;;;;17.73;11.93;;;4.10;99.90;;;;;;5033717;28;20469;-66
2022/01/14 01:43:12;;;;;;;17.73;11.60;;;4.10;99.90;;;;;;5033546;28;20450;-66
2022/01/14 01:45:40;;;;;;;15.63;10.40;;;4.10;99.90;;;;;;5033658;28;20453;-66
2022/01/14 01:48:07;;;;;;;13.83;11.43;;;4.10;99.90;;;;;;5033521;28;20451;-66
2022/01/14 01:50:36;;;;;;;18.20;11.60;;;4.10;99.90;;;;;;5034317;28;20474;-66
2022/01/14 01:53:05;;;;;;;17.20;11.37;;;4.10;99.90;;;;;;5033474;28;20537;-66
2022/01/14 01:55:32;;;;;;;13.87;10.10;;;4.10;99.90;;;;;;5033397;28;20536;-66
2022/01/14 01:58:00;;;;;;;14.23;9.40;;;4.10;99.90;;;;;;5033489;28;20834;-66
2022/01/14 02:00:28;;;;;;;14.00;10.27;;;4.10;99.90;;;;;;5033495;28;20449;-67
2022/01/14 02:02:56;;;;;;;15.20;10.83;;;4.10;99.90;;;;;;5033370;28;20454;-67
2022/01/14 02:05:23;;;;;;;17.20;11.47;;;4.10;99.90;;;;;;5033225;28;20474;-66
2022/01/14 02:07:50;;;;;;;14.37;10.60;;;4.10;99.90;;;;;;5033276;28;20459;-66
2022/01/14 02:10:17;;;;;;;15.73;11.03;;;4.10;99.90;;;;;;5033269;28;20442;-66
2022/01/14 02:12:50;;;;;;;14.30;11.03;;;4.10;99.90;;;;;;5033230;28;20443;-66
2022/01/14 02:18:32;;;;;;;18.83;10.53;;;4.10;99.90;;;;;;5022438;28;20505;-66
2022/01/14 02:23:52;;;;;;;13.93;10.40;;;4.10;99.90;;;;;;5035393;28;20465;-66
2022/01/14 02:26:21;;;;;;;12.27;9.90;;;4.00;99.90;;;;;;5037114;28;20446;-66
2022/01/14 02:28:49;;;;;;;13.17;9.97;;;4.00;99.90;;;;;;5037075;28;20469;-66
2022/01/14 02:31:16;;;;;;;14.40;10.37;;;4.00;99.90;;;;;;5036907;28;20485;-66
2022/01/14 02:33:43;;;;;;;14.30;11.37;;;4.00;99.90;;;;;;5036872;28;20882;-66
2022/01/14 02:36:12;;;;;;;15.87;12.00;;;4.00;99.90;;;;;;5036849;28;20534;-66
2022/01/14 02:38:39;;;;;;;17.13;10.70;;;4.00;99.90;;;;;;5036863;28;20442;-66
2022/01/14 02:41:06;;;;;;;19.90;11.97;;;4.00;99.90;;;;;;5036517;28;20443;-66
2022/01/14 02:43:34;;;;;;;14.70;10.90;;;4.00;99.90;;;;;;5036672;28;20473;-66
2022/01/14 02:46:01;;;;;;;14.20;10.67;;;3.90;99.90;;;;;;5036648;28;20752;-66
2022/01/14 02:48:29;;;;;;;13.27;10.63;;;3.90;99.90;;;;;;5036605;28;20477;-66
2022/01/14 02:51:00;;;;;;;13.67;10.67;;;3.90;99.90;;;;;;5037003;28;20485;-66
2022/01/14 02:53:42;;;;;;;14.80;11.03;;;3.90;99.90;;;;;;5036538;28;20435;-67
2022/01/14 02:56:11;;;;;;;12.20;10.10;;;3.90;99.90;;;;;;5036595;28;20427;-66
2022/01/14 02:58:39;;;;;;;14.53;9.80;;;3.90;99.90;;;;;;5036488;28;20488;-66
2022/01/14 03:01:08;;;;;;;16.63;10.90;;;3.90;99.90;;;;;;5036451;28;20445;-66
2022/01/14 03:03:35;;;;;;;14.10;10.50;;;3.90;99.90;;;;;;5036360;28;20833;-66
2022/01/14 03:06:03;;;;;;;13.23;10.33;;;3.90;99.90;;;;;;5036319;28;20446;-66
2022/01/14 03:08:32;;;;;;;12.10;10.73;;;3.90;99.90;;;;;;5036295;28;20455;-66
2022/01/14 03:11:03;;;;;;;15.67;10.40;;;3.90;99.90;;;;;;5036258;28;20479;-66
2022/01/14 03:13:30;;;;;;;18.17;11.30;;;3.90;99.90;;;;;;5036107;28;20485;-66
2022/01/14 03:15:58;;;;;;;15.47;10.90;;;3.80;99.90;;;;;;5036416;28;20454;-66
2022/01/14 03:18:33;;;;;;;12.87;10.83;;;3.80;99.90;;;;;;5036936;28;20442;-66
2022/01/14 03:21:09;;;;;;;13.00;9.83;;;3.80;99.90;;;;;;5037234;28;20426;-66
2022/01/14 03:23:43;;;;;;;13.50;10.33;;;3.80;99.90;;;;;;5036477;28;20840;-66
2022/01/14 03:26:11;;;;;;;16.83;11.23;;;3.80;99.90;;;;;;5036360;28;20520;-66
2022/01/14 03:28:38;;;;;;;15.27;11.27;;;3.80;99.90;;;;;;5036083;28;20451;-66
2022/01/14 03:31:04;;;;;;;18.93;10.70;;;3.80;99.90;;;;;;5035884;28;20501;-66
2022/01/14 03:33:31;;;;;;;17.70;10.90;;;3.70;99.90;;;;;;5035875;28;20478;-66
2022/01/14 03:36:38;;;;;;;17.73;11.20;;;3.70;99.90;;;;;;5035001;28;20446;-66
2022/01/14 03:39:06;;;;;;;17.20;11.93;;;3.70;99.90;;;;;;5035764;28;20453;-66
2022/01/14 03:41:33;;;;;;;15.70;12.17;;;3.70;99.90;;;;;;5035758;28;20473;-66
2022/01/14 03:44:00;;;;;;;16.87;12.03;;;3.80;99.90;;;;;;5035623;28;20474;-66
2022/01/14 03:46:27;;;;;;;19.40;13.20;;;3.70;99.90;;;;;;5035659;28;20473;-66
2022/01/14 03:48:53;;;;;;;15.40;10.93;;;3.70;99.90;;;;;;5035932;28;20446;-66
2022/01/14 03:51:22;;;;;;;15.30;11.93;;;3.70;99.90;;;;;;5035174;28;20489;-66
2022/01/14 03:53:49;;;;;;;14.43;10.53;;;3.70;99.90;;;;;;5035080;28;20466;-66
2022/01/14 03:56:18;;;;;;;16.40;11.60;;;3.70;99.90;;;;;;5035394;28;20789;-66
2022/01/14 03:58:44;;;;;;;17.27;11.90;;;3.70;99.90;;;;;;5035400;28;20836;-66
2022/01/14 04:01:13;;;;;;;16.30;11.57;;;3.70;99.90;;;;;;5035360;28;20450;-66
2022/01/14 04:03:41;;;;;;;16.10;11.60;;;3.60;99.90;;;;;;5035271;28;20861;-66
2022/01/14 04:06:10;;;;;;;18.53;12.90;;;3.70;99.90;;;;;;5034971;28;20473;-66
2022/01/14 04:08:38;;;;;;;16.30;11.70;;;3.60;99.90;;;;;;5035861;28;20485;-66
2022/01/14 04:11:05;;;;;;;17.33;13.00;;;3.60;99.90;;;;;;5035087;28;20445;-66
2022/01/14 04:13:39;;;;;;;15.07;11.57;;;3.60;99.90;;;;;;5035018;28;20474;-66
2022/01/14 04:16:05;;;;;;;16.50;12.03;;;3.60;99.90;;;;;;5034757;28;20435;-66
2022/01/14 04:18:32;;;;;;;17.53;12.60;;;3.60;99.90;;;;;;5035041;28;20433;-66
2022/01/14 04:20:58;;;;;;;20.53;12.80;;;3.50;99.90;;;;;;5034946;28;20451;-66
2022/01/14 04:23:25;;;;;;;17.23;11.80;;;3.50;99.90;;;;;;5034635;28;20450;-66
2022/01/14 04:25:53;;;;;;;18.60;12.97;;;3.50;99.90;;;;;;5034924;28;20435;-66
2022/01/14 04:28:21;;;;;;;17.47;11.80;;;3.50;99.90;;;;;;5034720;28;20446;-66
2022/01/14 04:30:54;;;;;;;13.97;11.20;;;3.50;99.90;;;;;;5034760;28;20473;-66
2022/01/14 04:33:21;;;;;;;16.47;10.90;;;3.40;99.80;;;;;;5034660;28;20517;-66
2022/01/14 04:35:48;;;;;;;19.30;11.20;;;3.40;99.80;;;;;;5034709;28;20431;-66
2022/01/14 04:38:15;;;;;;;14.23;10.13;;;3.40;99.80;;;;;;5034636;28;20866;-66
2022/01/14 04:40:42;;;;;;;14.17;10.60;;;3.40;99.80;;;;;;5034623;28;20537;-66
2022/01/14 04:43:09;;;;;;;16.70;11.10;;;3.40;99.80;;;;;;5034517;28;20453;-66
2022/01/14 04:45:54;;;;;;;16.00;11.17;;;3.40;99.80;;;;;;5034158;28;20497;-66
2022/01/14 04:48:23;;;;;;;15.47;9.73;;;3.40;99.70;;;;;;5034184;28;20493;-66
2022/01/14 04:50:51;;;;;;;13.70;10.67;;;3.30;99.80;;;;;;5034390;28;20443;-66
2022/01/14 04:53:18;;;;;;;16.03;10.50;;;3.30;99.80;;;;;;5034191;28;20482;-66
2022/01/14 04:55:45;;;;;;;14.63;10.27;;;3.30;99.70;;;;;;5033994;28;20834;-66
2022/01/14 04:58:12;;;;;;;10.30;9.13;;;3.30;99.70;;;;;;5033919;28;20457;-66
2022/01/14 05:00:39;;;;;;;15.93;10.60;;;3.30;99.60;;;;;;5033915;28;20941;-66
2022/01/14 05:03:06;;;;;;;16.20;10.30;;;3.30;99.60;;;;;;5034125;28;20446;-66
2022/01/14 05:05:38;;;;;;;15.00;9.80;;;3.30;99.60;;;;;;5033762;28;20477;-66
2022/01/14 05:08:09;;;;;;;13.90;10.50;;;3.30;99.50;;;;;;5034105;28;20435;-66
2022/01/14 05:10:48;;;;;;;17.07;10.67;;;3.30;99.60;;;;;;5033746;28;20439;-66
2022/01/14 05:13:15;;;;;;;14.17;11.20;;;3.20;99.60;;;;;;5033831;28;20466;-66
2022/01/14 05:15:42;;;;;;;15.60;10.93;;;3.30;99.60;;;;;;5033927;28;20442;-66
2022/01/14 05:18:09;;;;;;;13.47;10.70;;;3.20;99.50;;;;;;5033601;28;20926;-66
2022/01/14 05:20:37;;;;;;;15.73;10.27;;;3.20;99.40;;;;;;5033808;28;20519;-66
2022/01/14 05:23:04;;;;;;;12.40;10.07;;;3.20;99.40;;;;;;5033615;28;20450;-66
2022/01/14 05:25:31;;;;;;;18.33;11.73;;;3.20;99.30;;;;;;5033356;28;21030;-66
2022/01/14 05:27:58;;;;;;;12.10;9.50;;;3.20;99.60;;;;;;5033485;28;20446;-66
2022/01/14 05:30:25;;;;;;;14.30;9.77;;;3.20;99.70;;;;;;5033419;28;20446;-66
2022/01/14 05:32:53;;;;;;;16.53;10.50;;;3.10;99.60;;;;;;5033623;28;20482;-66
2022/01/14 05:35:22;;;;;;;19.67;10.90;;;3.10;99.60;;;;;;5033563;28;20478;-66
2022/01/14 05:37:50;;;;;;;15.13;11.10;;;3.10;99.70;;;;;;5033658;28;20438;-66
2022/01/14 05:40:18;;;;;;;15.37;10.80;;;3.10;99.70;;;;;;5033312;28;20442;-66
2022/01/14 05:42:45;;;;;;;14.17;10.43;;;3.10;99.80;;;;;;5033269;28;20964;-66
2022/01/14 05:45:13;;;;;;;14.13;10.83;;;3.10;99.80;;;;;;5033215;28;20466;-66
2022/01/14 05:47:41;;;;;;;18.13;10.40;;;3.10;99.70;;;;;;5033604;28;20446;-66
2022/01/14 05:50:11;;;;;;;17.47;11.30;;;3.10;99.70;;;;;;5033498;28;20448;-66
2022/01/14 05:52:38;;;;;;;18.70;10.80;;;3.10;99.80;;;;;;5033357;28;20521;-66
2022/01/14 05:55:07;;;;;;;14.20;10.70;;;3.00;99.70;;;;;;5033107;28;20996;-66
2022/01/14 05:57:34;;;;;;;15.53;11.37;;;3.10;99.80;;;;;;5035881;28;20454;-66
2022/01/14 06:00:01;;;;;;;14.00;9.50;;;3.00;99.70;;;;;;5039625;28;20962;-66
2022/01/14 06:02:28;;;;;;;14.93;10.90;;;3.00;99.80;;;;;;5040574;28;20840;-66
2022/01/14 06:04:55;;;;;;;14.00;10.07;;;3.00;99.80;;;;;;5039990;28;20456;-66
2022/01/14 06:07:21;;;;;;;19.70;11.70;;;3.00;99.80;;;;;;5039694;28;20948;-66
2022/01/14 06:09:48;;;;;;;17.33;10.40;;;3.00;99.90;;;;;;5039912;28;20451;-66
2022/01/14 06:12:16;;;;;;;17.53;12.03;;;3.00;99.90;;;;;;5039935;28;20659;-66
2022/01/14 06:14:43;;;;;;;19.63;11.50;;;3.00;99.90;;;;;;5040288;28;20466;-66
2022/01/14 06:17:10;;;;;;;15.97;11.27;;;3.00;99.90;;;;;;5039633;28;20449;-66
2022/01/14 06:19:36;;;;;;;19.13;12.17;;;3.00;99.90;;;;;;5040140;28;20438;-66
2022/01/14 06:22:03;;;;;;;18.53;12.97;;;3.00;99.90;;;;;;5040046;28;20453;-66
2022/01/14 06:24:30;;;;;;;23.83;13.03;;;3.00;99.90;;;;;;5040827;28;20543;-66
2022/01/14 06:26:57;;;;;;;16.50;11.40;;;3.00;99.90;;;;;;5040607;28;20454;-66
2022/01/14 06:29:25;;;;;;;15.90;11.73;;;3.10;99.90;;;;;;5040163;28;20446;-66
2022/01/14 06:31:52;;;;;;;19.07;12.20;;;3.00;99.90;;;;;;5039785;28;20449;-68
2022/01/14 06:34:19;;;;;;;19.63;11.03;;;3.00;99.90;;;;;;5039756;28;20477;-66
2022/01/14 06:36:45;;;;;;;20.20;12.60;;;3.00;99.80;;;;;;5039507;28;20452;-66
2022/01/14 06:39:12;;;;;;;22.90;12.60;;;3.00;99.90;;;;;;5039754;28;20441;-66
2022/01/14 06:41:39;;;;;;;25.37;13.97;;;3.00;99.90;;;;;;5039684;28;20455;-66
2022/01/14 06:44:06;;;;;;;21.20;13.53;;;3.00;99.90;;;;;;5039547;28;20462;-66
2022/01/14 06:46:34;;;;;;;16.53;11.97;;;3.00;99.90;;;;;;5039404;28;20446;-66
2022/01/14 06:49:01;;;;;;;16.93;13.13;;;3.00;99.90;;;;;;5039616;28;20454;-66
2022/01/14 06:51:28;;;;;;;20.90;13.57;;;3.00;99.90;;;;;;5039432;28;20446;-66
2022/01/14 06:53:55;;;;;;;17.80;14.80;;;3.00;99.90;;;;;;5039021;28;20489;-66
2022/01/14 06:56:21;;;;;;;26.77;15.80;;;3.00;99.80;;;;;;5039552;28;20823;-66
2022/01/14 06:58:48;;;;;;;23.33;16.77;;;3.00;99.90;;;;;;5039279;28;20459;-66
2022/01/14 07:01:16;;;;;;;29.20;17.30;;;3.00;99.90;;;;;;5039100;28;21114;-66
2022/01/14 07:03:44;;;;;;;22.07;17.60;;;3.00;99.90;;;;;;5039393;28;20549;-66
2022/01/14 07:06:11;;;;;;;30.93;16.37;;;3.00;99.90;;;;;;5039429;28;20442;-66
2022/01/14 07:08:38;;;;;;;24.80;15.30;;;3.00;99.90;;;;;;5038711;28;20446;-66
2022/01/14 07:11:04;;;;;;;31.97;17.50;;;3.00;99.90;;;;;;5035388;28;20461;-66
2022/01/14 07:13:31;;;;;;;30.13;18.37;;;3.10;99.90;;;;;;5036135;28;20482;-66
2022/01/14 07:15:58;;;;;;;31.07;19.00;;;3.10;99.90;;;;;;5036226;28;20488;-66
2022/01/14 07:18:24;;;;;;;34.27;17.30;;;3.10;99.90;;;;;;5036204;28;20427;-66
2022/01/14 07:20:52;;;;;;;39.37;18.17;;;3.10;99.90;;;;;;5036137;28;20454;-66
2022/01/14 07:23:19;;;;;;;35.13;19.73;;;3.10;99.90;;;;;;5036343;28;20789;-66
2022/01/14 07:25:46;;;;;;;33.67;18.30;;;3.20;99.90;;;;;;5036102;28;20428;-66
2022/01/14 07:28:13;;;;;;;40.70;19.70;;;3.20;99.90;;;;;;5035768;28;20798;-66
2022/01/14 07:30:39;;;;;;;42.17;19.80;;;3.20;99.90;;;;;;5036183;28;20457;-66
2022/01/14 07:33:06;;;;;;;38.83;19.93;;;3.30;99.90;;;;;;5035876;28;20518;-66
2022/01/14 07:35:33;;;;;;;34.27;19.23;;;3.30;99.90;;;;;;5035585;28;20976;-66
2022/01/14 07:38:01;;;;;;;46.63;21.77;;;3.30;99.90;;;;;;5035902;28;20450;-66
2022/01/14 07:40:28;;;;;;;45.87;20.90;;;3.40;99.90;;;;;;5035879;28;20443;-66
2022/01/14 07:42:54;;;;;;;59.93;20.60;;;3.40;99.90;;;;;;5035924;28;20521;-67
2022/01/14 07:45:21;;;;;;;68.97;23.97;;;3.40;99.90;;;;;;5035767;28;20467;-66
2022/01/14 07:47:48;;;;;;;75.97;22.90;;;3.40;99.90;;;;;;5035798;28;20454;-66
2022/01/14 07:50:15;;;;;;;53.53;23.90;;;3.30;99.90;;;;;;5037102;28;20458;-66
2022/01/14 07:52:42;;;;;;;55.33;24.03;;;3.30;99.90;;;;;;5036094;28;20516;-66
2022/01/14 07:55:10;;;;;;;42.10;23.13;;;3.30;99.90;;;;;;5035801;28;20474;-67
2022/01/14 07:57:37;;;;;;;42.30;23.90;;;3.40;99.90;;;;;;5035985;28;20453;-66
2022/01/14 08:00:06;;;;;;;47.03;21.60;;;3.40;99.90;;;;;;5035982;28;20454;-66
2022/01/14 08:02:33;;;;;;;46.33;24.87;;;3.50;99.90;;;;;;5035528;28;20516;-66
2022/01/14 08:05:01;;;;;;;39.00;22.77;;;3.50;99.90;;;;;;5035317;28;20474;-66
2022/01/14 08:07:29;;;;;;;39.53;22.67;;;3.60;99.90;;;;;;5035605;28;20446;-67
2022/01/14 08:09:56;;;;;;;52.80;22.10;;;3.70;99.90;;;;;;5035962;28;20446;-66
2022/01/14 08:12:24;;;;;;;43.77;22.83;;;3.80;99.90;;;;;;5035317;28;20446;-66
2022/01/14 08:14:51;;;;;;;43.40;25.67;;;3.80;99.90;;;;;;5035366;28;20466;-67
2022/01/14 08:17:20;;;;;;;38.23;23.03;;;3.80;99.90;;;;;;5035085;28;20453;-66
2022/01/14 08:19:46;;;;;;;43.97;24.00;;;3.90;99.90;;;;;;5035085;28;20446;-67
2022/01/14 08:22:13;;;;;;;39.90;25.70;;;3.90;99.90;;;;;;5034552;28;20457;-66
2022/01/14 08:24:40;;;;;;;64.57;27.30;;;3.90;99.90;;;;;;5034401;28;20478;-67
2022/01/14 08:27:07;;;;;;;83.23;28.43;;;3.90;99.90;;;;;;5034611;28;20452;-66
2022/01/14 08:29:35;;;;;;;57.67;26.50;;;4.00;99.90;;;;;;5034804;28;20458;-66
2022/01/14 08:32:02;;;;;;;52.93;26.57;;;4.00;99.90;;;;;;5034716;28;20454;-66
2022/01/14 08:34:29;;;;;;;46.47;27.90;;;4.00;99.90;;;;;;5034754;28;20908;-66
2022/01/14 08:36:56;;;;;;;68.83;30.20;;;4.00;99.90;;;;;;5034740;28;20508;-66
2022/01/14 08:39:23;;;;;;;80.47;31.37;;;4.00;99.90;;;;;;5034361;28;20943;-66
2022/01/14 08:41:50;;;;;;;49.03;29.40;;;4.00;99.90;;;;;;5034611;28;20450;-67
2022/01/14 08:44:18;;;;;;;51.00;29.50;;;4.10;99.90;;;;;;5034480;28;20467;-66
2022/01/14 08:46:46;;;;;;;47.00;29.80;;;4.20;99.90;;;;;;5034498;28;20453;-66
2022/01/14 08:49:12;;;;;;;62.90;33.87;;;4.20;99.90;;;;;;5034379;28;20443;-66
2022/01/14 08:51:39;;;;;;;77.53;34.23;;;4.30;99.90;;;;;;5034283;28;20457;-66
2022/01/14 08:54:07;;;;;;;48.80;30.50;;;4.30;99.90;;;;;;5033915;28;20501;-66
2022/01/14 08:56:34;;;;;;;55.60;30.70;;;4.30;99.90;;;;;;5034269;28;20465;-66
2022/01/14 08:59:01;;;;;;;47.60;28.47;;;4.10;99.90;;;;;;5034303;28;20446;-66
2022/01/14 09:01:28;;;;;;;50.60;29.97;;;4.10;99.90;;;;;;5034169;28;20485;-66
2022/01/14 09:03:56;;;;;;;53.43;30.33;;;4.20;99.90;;;;;;5034251;28;20569;-66
2022/01/14 09:06:23;;;;;;;46.00;30.87;;;4.10;99.90;;;;;;5034195;28;20454;-66
2022/01/14 09:08:50;;;;;;;52.90;29.77;;;4.20;99.90;;;;;;5034099;28;20791;-66
2022/01/14 09:11:17;;;;;;;59.53;29.10;;;4.30;99.90;;;;;;5034189;28;20458;-67
2022/01/14 09:13:44;;;;;;;49.73;30.30;;;4.30;99.90;;;;;;5034191;28;20518;-66
2022/01/14 09:16:11;;;;;;;41.07;28.77;;;4.40;99.90;;;;;;5033776;28;20964;-66
2022/01/14 09:18:37;;;;;;;43.30;29.00;;;4.40;99.90;;;;;;5033911;28;20435;-66
2022/01/14 09:21:06;;;;;;;44.90;29.53;;;4.40;99.90;;;;;;5033938;28;20446;-66
2022/01/14 09:23:34;;;;;;;39.10;27.70;;;4.50;99.90;;;;;;5033544;28;20450;-66
2022/01/14 09:26:01;;;;;;;52.47;31.17;;;4.60;99.90;;;;;;5034454;28;20466;-66
2022/01/14 09:28:28;;;;;;;45.63;31.67;;;4.70;99.90;;;;;;5034626;28;20950;-66
2022/01/14 09:30:55;;;;;;;41.00;28.97;;;4.80;99.90;;;;;;5034768;28;20540;-68
2022/01/14 09:33:22;;;;;;;39.60;27.87;;;4.80;99.90;;;;;;5033511;28;20486;-67
2022/01/14 09:35:49;;;;;;;39.13;28.33;;;4.90;99.90;;;;;;5033817;28;20484;-67
2022/01/14 09:38:17;;;;;;;48.87;28.33;;;4.90;99.90;;;;;;5033692;28;20447;-67
2022/01/14 09:40:49;;;;;;;42.65;32.75;;;5.00;99.90;;;;;;5032480;28;20451;-67
2022/01/14 09:43:15;;;;;;;43.28;33.05;;;5.10;99.90;;;;;;5032584;28;20445;-67
2022/01/14 09:45:43;;;;;;;44.97;33.50;;;5.20;99.90;;;;;;5033640;28;20210;-67
2022/01/14 09:48:13;;;;;;;45.93;32.13;;;5.30;99.90;;;;;;5033577;28;20469;-67
2022/01/14 09:50:40;;;;;;;42.17;29.87;;;5.40;99.90;;;;;;5033518;28;20438;-67
2022/01/14 09:53:07;;;;;;;39.87;27.33;;;5.40;99.90;;;;;;5033067;28;21025;-66
2022/01/14 09:55:35;;;;;;;39.30;28.30;;;5.50;99.90;;;;;;5033477;28;20477;-66
2022/01/14 09:58:01;;;;;;;38.77;27.83;;;5.60;99.90;;;;;;5033452;28;20869;-66
2022/01/14 10:00:28;;;;;;;42.23;27.93;;;5.70;99.90;;;;;;5033269;28;20453;-66
2022/01/14 10:02:55;;;;;;;42.20;27.90;;;5.80;99.90;;;;;;5033372;28;20450;-66
2022/01/14 10:05:34;;;;;;;50.27;31.33;;;5.80;99.90;;;;;;5034246;28;20477;-66
2022/01/14 10:08:09;;;;;;;45.10;31.97;;;5.90;99.90;;;;;;5032937;28;20461;-66
2022/01/14 10:10:38;;;;;;;48.40;31.57;;;6.00;99.90;;;;;;5033254;28;20453;-66
2022/01/14 10:13:13;;;;;;;55.57;35.10;;;5.90;99.90;;;;;;5033196;28;20435;-66
2022/01/14 10:15:45;;;;;;;57.60;34.33;;;5.90;99.90;;;;;;5033122;28;20471;-67
2022/01/14 10:18:14;;;;;;;54.43;34.07;;;5.90;99.90;;;;;;5033169;28;20449;-66
2022/01/14 10:20:41;;;;;;;61.20;39.23;;;5.90;99.90;;;;;;5033178;28;20435;-66
2022/01/14 10:23:08;;;;;;;70.57;39.60;;;5.90;99.90;;;;;;5033076;28;20438;-66
2022/01/14 10:25:36;;;;;;;65.57;39.03;;;5.90;99.90;;;;;;5032697;28;20976;-66
2022/01/14 10:28:03;;;;;;;66.13;38.40;;;5.90;99.90;;;;;;5033038;28;20450;-66
2022/01/14 10:30:32;;;;;;;58.50;33.97;;;6.00;99.90;;;;;;5033242;28;20812;-66
2022/01/14 10:33:02;;;;;;;59.60;34.80;;;5.90;99.90;;;;;;5033027;28;20431;-67
2022/01/14 10:35:32;;;;;;;55.23;34.07;;;6.00;99.90;;;;;;5032641;28;21026;-67
2022/01/14 10:38:01;;;;;;;47.13;30.10;;;6.00;99.90;;;;;;5032964;28;20449;-67
2022/01/14 10:40:29;;;;;;;50.13;30.00;;;6.00;99.90;;;;;;5032731;28;20438;-67
2022/01/14 10:43:04;;;;;;;52.97;33.03;;;6.00;99.90;;;;;;5032921;28;20459;-66
2022/01/14 10:45:31;;;;;;;43.93;28.83;;;6.00;99.90;;;;;;5036375;28;20585;-66
2022/01/14 10:48:00;;;;;;;47.03;29.40;;;6.00;99.90;;;;;;5036751;28;20439;-66
2022/01/14 10:50:29;;;;;;;47.47;28.80;;;6.10;99.90;;;;;;5036573;28;20473;-67
2022/01/14 10:52:56;;;;;;;49.97;30.30;;;6.10;99.90;;;;;;5036281;28;20969;-67
2022/01/14 10:55:34;;;;;;;55.60;30.13;;;6.10;99.90;;;;;;5036360;28;20493;-67
2022/01/14 10:58:04;;;;;;;49.50;30.30;;;6.20;99.90;;;;;;5036477;28;20442;-67
2022/01/14 11:00:40;;;;;;;39.17;26.60;;;6.20;99.90;;;;;;5036539;28;20458;-67
2022/01/14 11:03:06;;;;;;;42.27;27.90;;;6.20;99.90;;;;;;5036600;28;20845;-67
2022/01/14 11:05:34;;;;;;;38.00;26.93;;;6.20;99.90;;;;;;5036433;28;20473;-67
2022/01/14 11:08:03;;;;;;;41.70;26.00;;;6.20;99.90;;;;;;5036505;28;20537;-67
2022/01/14 11:10:33;;;;;;;42.80;28.70;;;6.20;99.90;;;;;;5036098;28;20932;-67
2022/01/14 11:13:01;;;;;;;42.23;26.37;;;6.20;99.90;;;;;;5036367;28;20452;-68
2022/01/14 11:15:31;;;;;;;65.40;27.87;;;6.20;99.90;;;;;;5036076;28;20498;-67
2022/01/14 11:18:01;;;;;;;54.40;29.57;;;6.20;99.90;;;;;;5035887;28;20442;-67
2022/01/14 11:20:32;;;;;;;47.00;29.30;;;6.20;99.90;;;;;;5035743;28;20919;-68
2022/01/14 11:23:17;;;;;;;44.67;29.77;;;6.20;99.90;;;;;;5035800;28;20893;-67
2022/01/14 11:25:46;;;;;;;45.47;29.60;;;6.30;99.90;;;;;;5036122;28;20824;-67
2022/01/14 11:28:17;;;;;;;46.90;28.90;;;6.30;99.90;;;;;;5035673;28;20940;-67
2022/01/14 11:30:45;;;;;;;54.50;30.13;;;6.30;99.90;;;;;;5036016;28;20426;-67
2022/01/14 11:33:15;;;;;;;49.20;31.70;;;6.40;99.90;;;;;;5035902;28;20508;-67
2022/01/14 11:35:52;;;;;;;46.77;29.20;;;6.40;99.90;;;;;;5035719;28;20430;-67
2022/01/14 11:38:37;;;;;;;44.77;29.20;;;6.40;99.90;;;;;;5035816;28;20430;-67
2022/01/14 11:41:05;;;;;;;40.47;27.00;;;6.40;99.90;;;;;;5035822;28;20443;-67
2022/01/14 11:43:44;;;;;;;54.17;33.90;;;6.40;99.90;;;;;;5035356;28;20952;-67
2022/01/14 11:46:14;;;;;;;55.60;30.60;;;6.40;99.90;;;;;;5035570;28;20438;-67
2022/01/14 11:48:45;;;;;;;49.60;30.83;;;6.50;99.90;;;;;;5035632;28;20435;-67
2022/01/14 11:51:14;;;;;;;40.80;27.10;;;6.50;99.90;;;;;;5035619;28;20434;-67
2022/01/14 11:53:53;;;;;;;47.97;31.00;;;6.50;99.90;;;;;;5035466;28;20470;-67
2022/01/14 11:56:43;;;;;;;49.70;29.43;;;6.50;99.90;;;;;;5034861;28;20505;-67
2022/01/14 11:59:44;;;;;;;51.23;30.83;;;6.50;99.90;;;;;;5036310;28;20446;-67
2022/01/14 12:02:33;;;;;;;45.70;28.60;;;6.50;99.90;;;;;;5035421;28;20450;-67
2022/01/14 12:05:04;;;;;;;45.53;28.53;;;6.60;99.90;;;;;;5035355;28;20875;-67
2022/01/14 12:07:31;;;;;;;48.97;31.47;;;6.60;99.90;;;;;;5035023;28;20462;-67
2022/01/14 12:10:01;;;;;;;51.40;31.47;;;6.60;99.90;;;;;;5035220;28;20806;-67
2022/01/14 12:12:30;;;;;;;57.10;35.30;;;6.70;99.90;;;;;;5035037;28;20480;-67
2022/01/14 12:14:59;;;;;;;52.43;35.00;;;6.70;99.90;;;;;;5034845;28;20493;-67
2022/01/14 12:17:34;;;;;;;49.20;31.03;;;6.80;99.90;;;;;;5035225;28;20462;-67
2022/01/14 12:20:09;;;;;;;44.92;29.90;;;6.80;99.90;;;;;;5034364;28;20445;-67
2022/01/14 12:22:36;;;;;;;50.00;35.35;;;6.90;99.90;;;;;;5033511;28;20449;-67
2022/01/14 12:25:04;;;;;;;55.93;32.80;;;7.00;99.90;;;;;;5034548;28;20836;-67
2022/01/14 12:27:45;;;;;;;49.10;31.37;;;7.00;99.90;;;;;;5034624;28;20948;-67
2022/01/14 12:30:28;;;;;;;54.67;30.93;;;7.00;99.90;;;;;;5035263;28;20526;-68
2022/01/14 12:32:56;;;;;;;47.23;29.37;;;7.00;99.90;;;;;;5035448;28;20414;-67
2022/01/14 12:35:35;;;;;;;59.03;31.57;;;7.00;99.90;;;;;;5036102;28;20482;-67
2022/01/14 12:38:02;;;;;;;46.05;28.92;;;7.00;99.90;;;;;;5035279;28;20445;-67
2022/01/14 12:40:36;;;;;;;55.00;31.30;;;7.00;99.90;;;;;;5035248;28;20211;-67
2022/01/14 12:43:05;;;;;;;46.57;30.80;;;7.00;99.90;;;;;;5034834;28;20435;-67
2022/01/14 12:45:41;;;;;;;47.27;30.23;;;7.00;99.90;;;;;;5034189;28;20837;-67
2022/01/14 12:48:31;;;;;;;45.90;29.43;;;7.10;99.90;;;;;;5034626;28;20484;-67
2022/01/14 12:51:06;;;;;;;52.03;32.60;;;7.00;99.90;;;;;;5035317;28;20435;-67
2022/01/14 12:53:33;;;;;;;46.30;29.60;;;7.00;99.90;;;;;;5034409;28;20450;-67
2022/01/14 12:56:01;;;;;;;50.23;30.97;;;7.00;99.90;;;;;;5034306;28;20500;-68
2022/01/14 12:58:30;;;;;;;51.63;32.33;;;7.00;99.90;;;;;;5034367;28;20498;-67
2022/01/14 13:01:08;;;;;;;55.97;33.53;;;7.00;99.90;;;;;;5034303;28;20443;-67
2022/01/14 13:03:36;;;;;;;54.07;32.67;;;7.00;99.90;;;;;;5033900;28;20904;-67
2022/01/14 13:06:03;;;;;;;51.67;30.00;;;7.00;99.90;;;;;;5034196;28;20443;-67